sensor_id;sensor_type;location;lat;lon;timestamp;pressure;altitude;pressure_sealevel;temperature;humidity
24858;BME280;12935;50.782;6.074;2022-10-24T00:02:21;98527.66;;;17.80;99.97
24858;BME280;12935;50.782;6.074;2022-10-24T00:04:48;98542.84;;;17.85;96.89
24858;BME280;12935;50.782;6.074;2022-10-24T00:07:13;98520.31;;;17.77;96.20
24858;BME280;12935;50.782;6.074;2022-10-24T00:09:39;98533.19;;;17.80;95.30
24858;BME280;12935;50.782;6.074;2022-10-24T00:12:04;98532.72;;;17.82;95.34
24858;BME280;12935;50.782;6.074;2022-10-24T00:14:30;98528.09;;;17.88;94.87
24858;BME280;12935;50.782;6.074;2022-10-24T00:16:56;98536.03;;;17.95;93.26
24858;BME280;12935;50.782;6.074;2022-10-24T00:19:22;98531.94;;;17.91;92.36
24858;BME280;12935;50.782;6.074;2022-10-24T00:21:47;98531.28;;;17.96;92.17
24858;BME280;12935;50.782;6.074;2022-10-24T00:24:13;98544.81;;;17.94;93.45
24858;BME280;12935;50.782;6.074;2022-10-24T00:26:39;98527.59;;;17.99;91.47
24858;BME280;12935;50.782;6.074;2022-10-24T00:29:04;98534.81;;;17.96;91.24
24858;BME280;12935;50.782;6.074;2022-10-24T00:31:30;98530.66;;;18.01;91.03
24858;BME280;12935;50.782;6.074;2022-10-24T00:33:56;98523.28;;;17.98;91.06
24858;BME280;12935;50.782;6.074;2022-10-24T00:36:25;98522.06;;;17.99;91.31
24858;BME280;12935;50.782;6.074;2022-10-24T00:38:51;98514.41;;;17.94;91.62
24858;BME280;12935;50.782;6.074;2022-10-24T00:41:19;98505.38;;;17.93;92.82
24858;BME280;12935;50.782;6.074;2022-10-24T00:43:45;98512.59;;;17.91;92.84
24858;BME280;12935;50.782;6.074;2022-10-24T00:46:11;98502.91;;;17.86;93.48
24858;BME280;12935;50.782;6.074;2022-10-24T00:48:45;98516.75;;;17.86;93.79
24858;BME280;12935;50.782;6.074;2022-10-24T00:53:41;98509.69;;;17.85;93.98
24858;BME280;12935;50.782;6.074;2022-10-24T00:56:07;98513.06;;;17.80;94.26
24858;BME280;12935;50.782;6.074;2022-10-24T00:58:33;98510.97;;;17.75;94.83
24858;BME280;12935;50.782;6.074;2022-10-24T01:00:59;98492.19;;;17.79;94.66
24858;BME280;12935;50.782;6.074;2022-10-24T01:03:24;98511.25;;;17.77;94.34
24858;BME280;12935;50.782;6.074;2022-10-24T01:06:13;98502.66;;;17.75;94.55
24858;BME280;12935;50.782;6.074;2022-10-24T01:08:58;98501.00;;;17.68;95.49
24858;BME280;12935;50.782;6.074;2022-10-24T01:14:33;98496.69;;;17.76;94.80
24858;BME280;12935;50.782;6.074;2022-10-24T01:17:13;98507.13;;;17.72;94.57
24858;BME280;12935;50.782;6.074;2022-10-24T01:22:21;98494.06;;;17.73;92.98
24858;BME280;12935;50.782;6.074;2022-10-24T01:30:17;98476.13;;;17.68;91.47
24858;BME280;12935;50.782;6.074;2022-10-24T01:32:50;98487.47;;;17.70;91.64
24858;BME280;12935;50.782;6.074;2022-10-24T01:35:46;98473.53;;;17.65;91.60
24858;BME280;12935;50.782;6.074;2022-10-24T01:38:27;98481.03;;;17.64;91.31
24858;BME280;12935;50.782;6.074;2022-10-24T01:41:10;98498.38;;;17.65;90.30
24858;BME280;12935;50.782;6.074;2022-10-24T01:43:43;98474.13;;;17.69;89.64
24858;BME280;12935;50.782;6.074;2022-10-24T01:46:14;98466.16;;;17.62;89.56
24858;BME280;12935;50.782;6.074;2022-10-24T01:48:46;98448.75;;;17.37;90.51
24858;BME280;12935;50.782;6.074;2022-10-24T01:51:16;98466.78;;;17.57;89.75
24858;BME280;12935;50.782;6.074;2022-10-24T01:53:44;98474.44;;;17.62;89.08
24858;BME280;12935;50.782;6.074;2022-10-24T01:56:10;98479.06;;;17.56;88.80
24858;BME280;12935;50.782;6.074;2022-10-24T01:58:36;98484.59;;;17.56;88.35
24858;BME280;12935;50.782;6.074;2022-10-24T02:01:07;98482.44;;;17.50;89.19
24858;BME280;12935;50.782;6.074;2022-10-24T02:03:37;98471.09;;;17.48;89.07
24858;BME280;12935;50.782;6.074;2022-10-24T02:06:20;98477.06;;;17.56;88.46
24858;BME280;12935;50.782;6.074;2022-10-24T02:08:51;98470.31;;;17.57;88.00
24858;BME280;12935;50.782;6.074;2022-10-24T02:11:18;98469.56;;;17.57;87.80
24858;BME280;12935;50.782;6.074;2022-10-24T02:13:56;98466.34;;;17.49;87.82
24858;BME280;12935;50.782;6.074;2022-10-24T02:16:21;98475.38;;;17.49;88.64
24858;BME280;12935;50.782;6.074;2022-10-24T02:18:50;98461.94;;;17.42;89.59
24858;BME280;12935;50.782;6.074;2022-10-24T02:21:31;98476.63;;;17.48;89.47
24858;BME280;12935;50.782;6.074;2022-10-24T02:23:59;98467.44;;;17.42;90.27
24858;BME280;12935;50.782;6.074;2022-10-24T02:26:38;98467.91;;;17.41;90.79
24858;BME280;12935;50.782;6.074;2022-10-24T02:29:11;98464.69;;;17.42;90.46
24858;BME280;12935;50.782;6.074;2022-10-24T02:31:41;98461.31;;;17.38;91.26
24858;BME280;12935;50.782;6.074;2022-10-24T02:34:09;98456.56;;;17.39;91.26
24858;BME280;12935;50.782;6.074;2022-10-24T02:36:36;98458.41;;;17.42;90.96
24858;BME280;12935;50.782;6.074;2022-10-24T02:39:06;98453.03;;;17.38;91.11
24858;BME280;12935;50.782;6.074;2022-10-24T02:41:35;98456.59;;;17.21;93.16
24858;BME280;12935;50.782;6.074;2022-10-24T02:44:02;98456.75;;;17.26;92.65
24858;BME280;12935;50.782;6.074;2022-10-24T02:46:29;98463.94;;;17.33;91.87
24858;BME280;12935;50.782;6.074;2022-10-24T02:48:58;98464.41;;;17.31;91.70
24858;BME280;12935;50.782;6.074;2022-10-24T02:51:27;98448.13;;;17.33;91.11
24858;BME280;12935;50.782;6.074;2022-10-24T02:53:53;98449.97;;;17.36;90.69
24858;BME280;12935;50.782;6.074;2022-10-24T02:56:19;98448.31;;;17.30;91.27
24858;BME280;12935;50.782;6.074;2022-10-24T02:58:44;98447.25;;;17.27;91.71
24858;BME280;12935;50.782;6.074;2022-10-24T03:01:09;98444.78;;;17.29;91.20
24858;BME280;12935;50.782;6.074;2022-10-24T03:03:35;98445.09;;;17.22;91.77
24858;BME280;12935;50.782;6.074;2022-10-24T03:06:00;98450.31;;;17.20;91.48
24858;BME280;12935;50.782;6.074;2022-10-24T03:08:25;98452.47;;;17.16;91.37
24858;BME280;12935;50.782;6.074;2022-10-24T03:10:50;98435.16;;;17.15;91.49
24858;BME280;12935;50.782;6.074;2022-10-24T03:13:16;98440.19;;;17.17;91.46
24858;BME280;12935;50.782;6.074;2022-10-24T03:15:41;98443.72;;;17.17;90.62
24858;BME280;12935;50.782;6.074;2022-10-24T03:18:06;98447.56;;;17.20;90.23
24858;BME280;12935;50.782;6.074;2022-10-24T03:20:32;98438.03;;;17.21;89.92
24858;BME280;12935;50.782;6.074;2022-10-24T03:22:58;98449.84;;;17.22;90.46
24858;BME280;12935;50.782;6.074;2022-10-24T03:25:23;98446.97;;;17.07;91.29
24858;BME280;12935;50.782;6.074;2022-10-24T03:27:48;98440.53;;;17.10;90.88
24858;BME280;12935;50.782;6.074;2022-10-24T03:30:13;98440.06;;;17.02;92.17
24858;BME280;12935;50.782;6.074;2022-10-24T03:32:39;98429.81;;;17.12;91.35
24858;BME280;12935;50.782;6.074;2022-10-24T03:35:04;98437.63;;;17.04;92.12
24858;BME280;12935;50.782;6.074;2022-10-24T03:37:29;98443.78;;;16.99;92.11
24858;BME280;12935;50.782;6.074;2022-10-24T03:39:55;98445.00;;;16.98;91.28
24858;BME280;12935;50.782;6.074;2022-10-24T03:42:20;98430.25;;;17.01;89.94
24858;BME280;12935;50.782;6.074;2022-10-24T03:44:46;98431.34;;;17.04;89.52
24858;BME280;12935;50.782;6.074;2022-10-24T03:47:11;98425.81;;;17.04;89.10
24858;BME280;12935;50.782;6.074;2022-10-24T03:49:36;98428.59;;;16.95;89.11
24858;BME280;12935;50.782;6.074;2022-10-24T03:52:02;98419.72;;;17.00;88.87
24858;BME280;12935;50.782;6.074;2022-10-24T03:54:27;98418.63;;;16.97;88.78
24858;BME280;12935;50.782;6.074;2022-10-24T03:56:52;98408.53;;;16.94;88.98
24858;BME280;12935;50.782;6.074;2022-10-24T03:59:18;98410.47;;;17.03;87.47
24858;BME280;12935;50.782;6.074;2022-10-24T04:01:43;98398.88;;;16.90;88.64
24858;BME280;12935;50.782;6.074;2022-10-24T04:04:08;98408.81;;;16.96;87.72
24858;BME280;12935;50.782;6.074;2022-10-24T04:06:34;98408.38;;;16.98;86.92
24858;BME280;12935;50.782;6.074;2022-10-24T04:08:59;98412.97;;;16.92;87.59
24858;BME280;12935;50.782;6.074;2022-10-24T04:11:25;98408.81;;;16.96;87.21
24858;BME280;12935;50.782;6.074;2022-10-24T04:13:51;98433.19;;;17.07;85.26
24858;BME280;12935;50.782;6.074;2022-10-24T04:16:18;98437.31;;;17.02;85.03
24858;BME280;12935;50.782;6.074;2022-10-24T04:18:43;98438.09;;;16.94;85.80
24858;BME280;12935;50.782;6.074;2022-10-24T04:21:09;98423.09;;;16.95;86.19
24858;BME280;12935;50.782;6.074;2022-10-24T04:23:34;98439.03;;;16.91;86.04
24858;BME280;12935;50.782;6.074;2022-10-24T04:26:05;98437.66;;;16.86;85.92
24858;BME280;12935;50.782;6.074;2022-10-24T04:28:31;98432.91;;;16.96;85.41
24858;BME280;12935;50.782;6.074;2022-10-24T04:30:56;98433.22;;;16.98;85.08
24858;BME280;12935;50.782;6.074;2022-10-24T04:33:22;98430.13;;;16.96;85.02
24858;BME280;12935;50.782;6.074;2022-10-24T04:35:48;98435.31;;;17.03;84.58
24858;BME280;12935;50.782;6.074;2022-10-24T04:38:14;98437.19;;;16.88;85.73
24858;BME280;12935;50.782;6.074;2022-10-24T04:40:39;98432.31;;;16.73;86.73
24858;BME280;12935;50.782;6.074;2022-10-24T04:43:05;98429.09;;;16.66;87.43
24858;BME280;12935;50.782;6.074;2022-10-24T04:45:30;98430.31;;;16.65;88.03
24858;BME280;12935;50.782;6.074;2022-10-24T04:47:55;98447.00;;;16.70;88.22
24858;BME280;12935;50.782;6.074;2022-10-24T04:50:21;98446.09;;;16.64;88.23
24858;BME280;12935;50.782;6.074;2022-10-24T04:52:46;98446.09;;;16.64;89.18
24858;BME280;12935;50.782;6.074;2022-10-24T04:55:11;98467.69;;;16.75;88.76
24858;BME280;12935;50.782;6.074;2022-10-24T04:57:36;98460.22;;;16.66;89.30
24858;BME280;12935;50.782;6.074;2022-10-24T05:00:03;98464.19;;;16.65;90.38
24858;BME280;12935;50.782;6.074;2022-10-24T05:02:29;98464.50;;;16.67;90.70
24858;BME280;12935;50.782;6.074;2022-10-24T05:04:54;98464.94;;;16.75;89.59
24858;BME280;12935;50.782;6.074;2022-10-24T05:07:19;98475.66;;;16.73;89.92
24858;BME280;12935;50.782;6.074;2022-10-24T05:09:46;98469.25;;;16.76;89.51
24858;BME280;12935;50.782;6.074;2022-10-24T05:12:12;98495.56;;;16.59;91.68
24858;BME280;12935;50.782;6.074;2022-10-24T05:14:37;98472.41;;;16.56;91.73
24858;BME280;12935;50.782;6.074;2022-10-24T05:17:03;98487.47;;;16.64;91.60
24858;BME280;12935;50.782;6.074;2022-10-24T05:19:28;98475.94;;;16.57;92.63
24858;BME280;12935;50.782;6.074;2022-10-24T05:21:54;98489.13;;;16.53;92.94
24858;BME280;12935;50.782;6.074;2022-10-24T05:24:19;98492.63;;;16.44;94.30
24858;BME280;12935;50.782;6.074;2022-10-24T05:26:44;98470.41;;;16.38;95.12
24858;BME280;12935;50.782;6.074;2022-10-24T05:29:10;98478.38;;;16.45;95.20
24858;BME280;12935;50.782;6.074;2022-10-24T05:31:35;98485.13;;;16.54;94.52
24858;BME280;12935;50.782;6.074;2022-10-24T05:34:00;98477.31;;;16.43;94.71
24858;BME280;12935;50.782;6.074;2022-10-24T05:36:26;98474.28;;;16.50;94.59
24858;BME280;12935;50.782;6.074;2022-10-24T05:38:51;98478.53;;;16.42;94.87
24858;BME280;12935;50.782;6.074;2022-10-24T05:41:16;98485.59;;;16.43;95.22
24858;BME280;12935;50.782;6.074;2022-10-24T05:43:41;98480.22;;;16.30;96.80
24858;BME280;12935;50.782;6.074;2022-10-24T05:46:07;98495.06;;;16.33;96.69
24858;BME280;12935;50.782;6.074;2022-10-24T05:48:34;98483.28;;;16.41;95.73
24858;BME280;12935;50.782;6.074;2022-10-24T05:51:00;98489.41;;;16.45;95.39
24858;BME280;12935;50.782;6.074;2022-10-24T05:53:25;98495.81;;;16.24;97.55
24858;BME280;12935;50.782;6.074;2022-10-24T05:55:51;98491.81;;;16.25;97.23
24858;BME280;12935;50.782;6.074;2022-10-24T05:58:16;98500.09;;;16.16;98.36
24858;BME280;12935;50.782;6.074;2022-10-24T06:00:47;98494.59;;;16.25;97.50
24858;BME280;12935;50.782;6.074;2022-10-24T06:03:13;98499.19;;;16.28;97.43
24858;BME280;12935;50.782;6.074;2022-10-24T06:05:38;98498.69;;;16.11;98.90
24858;BME280;12935;50.782;6.074;2022-10-24T06:08:04;98500.84;;;16.17;99.08
24858;BME280;12935;50.782;6.074;2022-10-24T06:10:29;98501.31;;;16.24;97.95
24858;BME280;12935;50.782;6.074;2022-10-24T06:12:54;98510.66;;;16.27;97.46
24858;BME280;12935;50.782;6.074;2022-10-24T06:15:20;98513.09;;;16.25;97.42
24858;BME280;12935;50.782;6.074;2022-10-24T06:17:45;98514.66;;;16.26;97.04
24858;BME280;12935;50.782;6.074;2022-10-24T06:20:10;98518.81;;;16.30;96.48
24858;BME280;12935;50.782;6.074;2022-10-24T06:22:36;98521.41;;;16.34;96.30
24858;BME280;12935;50.782;6.074;2022-10-24T06:25:01;98520.59;;;16.15;97.26
24858;BME280;12935;50.782;6.074;2022-10-24T06:27:26;98529.19;;;16.26;96.59
24858;BME280;12935;50.782;6.074;2022-10-24T06:29:52;98524.59;;;16.23;97.08
24858;BME280;12935;50.782;6.074;2022-10-24T06:32:17;98534.56;;;16.30;96.65
24858;BME280;12935;50.782;6.074;2022-10-24T06:34:43;98526.16;;;16.33;95.56
24858;BME280;12935;50.782;6.074;2022-10-24T06:37:08;98536.56;;;16.38;95.58
24858;BME280;12935;50.782;6.074;2022-10-24T06:39:33;98540.53;;;16.19;97.22
24858;BME280;12935;50.782;6.074;2022-10-24T06:41:59;98537.78;;;16.19;97.76
24858;BME280;12935;50.782;6.074;2022-10-24T06:44:25;98534.72;;;16.26;97.43
24858;BME280;12935;50.782;6.074;2022-10-24T06:46:50;98531.22;;;16.35;96.81
24858;BME280;12935;50.782;6.074;2022-10-24T06:49:15;98538.56;;;16.38;96.47
24858;BME280;12935;50.782;6.074;2022-10-24T06:51:41;98535.97;;;16.34;96.99
24858;BME280;12935;50.782;6.074;2022-10-24T06:54:07;98554.50;;;16.43;96.57
24858;BME280;12935;50.782;6.074;2022-10-24T06:56:32;98547.91;;;16.40;97.20
24858;BME280;12935;50.782;6.074;2022-10-24T06:58:57;98553.41;;;16.31;98.00
24858;BME280;12935;50.782;6.074;2022-10-24T07:01:24;98551.69;;;16.25;99.59
24858;BME280;12935;50.782;6.074;2022-10-24T07:03:50;98560.78;;;16.34;99.20
24858;BME280;12935;50.782;6.074;2022-10-24T07:06:22;98576.25;;;16.41;98.64
24858;BME280;12935;50.782;6.074;2022-10-24T07:08:49;98572.13;;;16.45;98.41
24858;BME280;12935;50.782;6.074;2022-10-24T07:11:15;98584.56;;;16.50;97.65
24858;BME280;12935;50.782;6.074;2022-10-24T07:13:40;98574.31;;;16.51;98.01
24858;BME280;12935;50.782;6.074;2022-10-24T07:16:06;98592.47;;;16.39;98.98
24858;BME280;12935;50.782;6.074;2022-10-24T07:18:31;98587.84;;;16.27;100.00
24858;BME280;12935;50.782;6.074;2022-10-24T07:21:05;98596.44;;;16.29;100.00
24858;BME280;12935;50.782;6.074;2022-10-24T07:23:31;98589.72;;;16.39;100.00
24858;BME280;12935;50.782;6.074;2022-10-24T07:26:15;98596.38;;;16.51;99.21
24858;BME280;12935;50.782;6.074;2022-10-24T07:28:42;98580.41;;;16.55;98.76
24858;BME280;12935;50.782;6.074;2022-10-24T07:31:11;98600.66;;;16.61;98.05
24858;BME280;12935;50.782;6.074;2022-10-24T07:33:39;98613.59;;;16.64;97.27
24858;BME280;12935;50.782;6.074;2022-10-24T07:36:05;98597.91;;;16.52;98.34
24858;BME280;12935;50.782;6.074;2022-10-24T07:38:31;98602.59;;;16.33;99.79
24858;BME280;12935;50.782;6.074;2022-10-24T07:40:56;98623.50;;;16.52;99.12
24858;BME280;12935;50.782;6.074;2022-10-24T07:43:22;98609.28;;;16.63;97.10
24858;BME280;12935;50.782;6.074;2022-10-24T07:45:47;98612.81;;;16.63;96.76
24858;BME280;12935;50.782;6.074;2022-10-24T07:48:14;98616.03;;;16.71;95.86
24858;BME280;12935;50.782;6.074;2022-10-24T07:50:44;98620.63;;;16.65;96.38
24858;BME280;12935;50.782;6.074;2022-10-24T07:53:10;98624.94;;;16.66;96.50
24858;BME280;12935;50.782;6.074;2022-10-24T07:55:38;98624.78;;;16.69;97.09
24858;BME280;12935;50.782;6.074;2022-10-24T07:58:04;98629.56;;;16.78;96.63
24858;BME280;12935;50.782;6.074;2022-10-24T08:00:29;98610.09;;;16.81;95.99
24858;BME280;12935;50.782;6.074;2022-10-24T08:02:54;98608.72;;;16.86;95.03
24858;BME280;12935;50.782;6.074;2022-10-24T08:05:19;98616.38;;;16.91;94.05
24858;BME280;12935;50.782;6.074;2022-10-24T08:07:45;98635.84;;;16.78;95.53
24858;BME280;12935;50.782;6.074;2022-10-24T08:10:12;98608.97;;;16.70;96.98
24858;BME280;12935;50.782;6.074;2022-10-24T08:12:37;98624.81;;;16.78;96.67
24858;BME280;12935;50.782;6.074;2022-10-24T08:15:03;98621.59;;;16.80;96.46
24858;BME280;12935;50.782;6.074;2022-10-24T08:17:29;98624.34;;;16.80;96.63
24858;BME280;12935;50.782;6.074;2022-10-24T08:19:54;98637.78;;;16.69;97.74
24858;BME280;12935;50.782;6.074;2022-10-24T08:22:19;98644.56;;;16.86;97.39
24858;BME280;12935;50.782;6.074;2022-10-24T08:24:45;98628.38;;;16.97;95.50
24858;BME280;12935;50.782;6.074;2022-10-24T08:27:11;98647.38;;;17.04;94.54
24858;BME280;12935;50.782;6.074;2022-10-24T08:29:36;98644.31;;;17.21;94.33
24858;BME280;12935;50.782;6.074;2022-10-24T08:32:02;98645.41;;;17.23;93.64
24858;BME280;12935;50.782;6.074;2022-10-24T08:34:27;98638.66;;;17.15;93.86
24858;BME280;12935;50.782;6.074;2022-10-24T08:36:53;98644.63;;;17.23;94.11
24858;BME280;12935;50.782;6.074;2022-10-24T08:39:19;98640.34;;;17.40;93.56
24858;BME280;12935;50.782;6.074;2022-10-24T08:44:35;98635.44;;;17.62;92.11
24858;BME280;12935;50.782;6.074;2022-10-24T08:49:42;98655.69;;;17.41;93.66
24858;BME280;12935;50.782;6.074;2022-10-24T08:54:54;98670.41;;;17.38;92.82
24858;BME280;12935;50.782;6.074;2022-10-24T08:57:23;98663.84;;;17.44;93.41
24858;BME280;12935;50.782;6.074;2022-10-24T08:59:52;98666.13;;;17.37;92.54
24858;BME280;12935;50.782;6.074;2022-10-24T09:02:25;98664.91;;;17.38;94.36
24858;BME280;12935;50.782;6.074;2022-10-24T09:04:55;98663.06;;;17.44;93.08
24858;BME280;12935;50.782;6.074;2022-10-24T09:07:22;98667.34;;;17.36;93.34
24858;BME280;12935;50.782;6.074;2022-10-24T09:09:49;98679.44;;;17.20;94.86
24858;BME280;12935;50.782;6.074;2022-10-24T09:12:18;98672.72;;;17.30;93.83
24858;BME280;12935;50.782;6.074;2022-10-24T09:14:45;98684.06;;;17.23;94.57
24858;BME280;12935;50.782;6.074;2022-10-24T09:17:20;98670.72;;;17.22;94.82
24858;BME280;12935;50.782;6.074;2022-10-24T09:19:58;98692.81;;;17.40;93.93
24858;BME280;12935;50.782;6.074;2022-10-24T09:22:27;98677.78;;;17.41;93.42
24858;BME280;12935;50.782;6.074;2022-10-24T09:25:03;98677.47;;;17.48;93.95
24858;BME280;12935;50.782;6.074;2022-10-24T09:27:32;98680.88;;;17.61;91.94
24858;BME280;12935;50.782;6.074;2022-10-24T09:29:58;98691.28;;;17.48;93.52
24858;BME280;12935;50.782;6.074;2022-10-24T09:32:26;98687.16;;;17.43;92.51
24858;BME280;12935;50.782;6.074;2022-10-24T09:34:53;98681.94;;;17.45;92.50
24858;BME280;12935;50.782;6.074;2022-10-24T09:40:16;98690.53;;;17.38;92.41
24858;BME280;12935;50.782;6.074;2022-10-24T09:42:48;98707.53;;;17.37;92.48
24858;BME280;12935;50.782;6.074;2022-10-24T09:45:30;98698.50;;;17.36;92.93
24858;BME280;12935;50.782;6.074;2022-10-24T09:47:59;98704.00;;;17.36;92.91
24858;BME280;12935;50.782;6.074;2022-10-24T09:50:26;98704.16;;;17.33;91.74
24858;BME280;12935;50.782;6.074;2022-10-24T09:52:53;98716.13;;;17.39;91.36
24858;BME280;12935;50.782;6.074;2022-10-24T09:55:24;98718.44;;;17.40;91.50
24858;BME280;12935;50.782;6.074;2022-10-24T09:57:56;98734.53;;;17.33;91.80
24858;BME280;12935;50.782;6.074;2022-10-24T10:00:30;98728.09;;;17.27;92.73
24858;BME280;12935;50.782;6.074;2022-10-24T10:05:22;98718.13;;;17.38;91.93
24858;BME280;12935;50.782;6.074;2022-10-24T10:07:49;98720.41;;;17.22;92.80
24858;BME280;12935;50.782;6.074;2022-10-24T10:12:46;98730.53;;;17.25;93.94
24858;BME280;12935;50.782;6.074;2022-10-24T10:15:21;98741.00;;;17.48;92.36
24858;BME280;12935;50.782;6.074;2022-10-24T10:17:53;98745.31;;;17.58;92.49
24858;BME280;12935;50.782;6.074;2022-10-24T10:20:37;98743.06;;;17.75;90.52
24858;BME280;12935;50.782;6.074;2022-10-24T10:26:21;98745.81;;;17.93;90.95
24858;BME280;12935;50.782;6.074;2022-10-24T10:29:03;98743.19;;;18.08;89.22
24858;BME280;12935;50.782;6.074;2022-10-24T10:31:40;98758.53;;;18.18;88.53
24858;BME280;12935;50.782;6.074;2022-10-24T10:37:22;98763.31;;;17.99;89.70
24858;BME280;12935;50.782;6.074;2022-10-24T10:56:57;98783.59;;;17.87;90.23
24858;BME280;12935;50.782;6.074;2022-10-24T11:10:24;98789.09;;;18.14;89.10
24858;BME280;12935;50.782;6.074;2022-10-24T11:12:53;98797.09;;;17.85;91.05
24858;BME280;12935;50.782;6.074;2022-10-24T11:15:26;98791.56;;;17.85;91.44
24858;BME280;12935;50.782;6.074;2022-10-24T11:21:06;98800.31;;;17.83;91.68
24858;BME280;12935;50.782;6.074;2022-10-24T11:23:43;98801.56;;;17.92;91.88
24858;BME280;12935;50.782;6.074;2022-10-24T11:29:07;98807.06;;;17.82;91.66
24858;BME280;12935;50.782;6.074;2022-10-24T11:31:42;98814.00;;;17.78;92.82
24858;BME280;12935;50.782;6.074;2022-10-24T11:36:46;98825.97;;;17.84;90.02
24858;BME280;12935;50.782;6.074;2022-10-24T11:39:18;98806.31;;;17.91;90.88
24858;BME280;12935;50.782;6.074;2022-10-24T11:42:00;98794.81;;;17.93;91.01
24858;BME280;12935;50.782;6.074;2022-10-24T11:44:40;98807.84;;;17.74;93.32
24858;BME280;12935;50.782;6.074;2022-10-24T11:50:09;98802.47;;;17.88;92.57
24858;BME280;12935;50.782;6.074;2022-10-24T11:52:39;98812.16;;;17.93;91.85
24858;BME280;12935;50.782;6.074;2022-10-24T11:55:17;98822.38;;;17.65;93.60
24858;BME280;12935;50.782;6.074;2022-10-24T11:57:47;98816.69;;;17.60;95.04
24858;BME280;12935;50.782;6.074;2022-10-24T12:14:30;98823.34;;;17.71;94.52
24858;BME280;12935;50.782;6.074;2022-10-24T12:19:39;98814.28;;;17.71;94.05
24858;BME280;12935;50.782;6.074;2022-10-24T12:22:06;98819.03;;;17.79;94.17
24858;BME280;12935;50.782;6.074;2022-10-24T12:24:37;98814.56;;;17.64;95.88
24858;BME280;12935;50.782;6.074;2022-10-24T12:27:07;98817.34;;;17.82;93.56
24858;BME280;12935;50.782;6.074;2022-10-24T12:29:44;98805.69;;;17.87;93.33
24858;BME280;12935;50.782;6.074;2022-10-24T12:32:38;98806.31;;;18.00;92.33
24858;BME280;12935;50.782;6.074;2022-10-24T12:37:55;98801.09;;;17.93;91.35
24858;BME280;12935;50.782;6.074;2022-10-24T12:40:49;98806.88;;;18.59;89.03
24858;BME280;12935;50.782;6.074;2022-10-24T12:43:39;98791.66;;;18.73;86.44
24858;BME280;12935;50.782;6.074;2022-10-24T12:48:43;98794.81;;;19.22;82.46
24858;BME280;12935;50.782;6.074;2022-10-24T12:56:32;98787.22;;;21.36;71.79
24858;BME280;12935;50.782;6.074;2022-10-24T13:01:29;98783.88;;;21.32;66.81
24858;BME280;12935;50.782;6.074;2022-10-24T13:04:32;98777.72;;;20.49;70.17
24858;BME280;12935;50.782;6.074;2022-10-24T13:06:57;98792.91;;;20.24;72.02
24858;BME280;12935;50.782;6.074;2022-10-24T13:17:30;98770.34;;;22.26;64.66
24858;BME280;12935;50.782;6.074;2022-10-24T13:20:20;98758.50;;;23.26;57.24
24858;BME280;12935;50.782;6.074;2022-10-24T13:22:46;98763.94;;;21.54;62.50
24858;BME280;12935;50.782;6.074;2022-10-24T13:25:20;98759.34;;;20.66;66.59
24858;BME280;12935;50.782;6.074;2022-10-24T13:35:55;98771.84;;;20.32;71.60
24858;BME280;12935;50.782;6.074;2022-10-24T13:38:22;98760.72;;;20.03;72.81
24858;BME280;12935;50.782;6.074;2022-10-24T13:40:48;98769.47;;;20.25;71.69
24858;BME280;12935;50.782;6.074;2022-10-24T13:43:16;98776.53;;;20.11;71.89
24858;BME280;12935;50.782;6.074;2022-10-24T13:45:45;98771.00;;;20.26;71.05
24858;BME280;12935;50.782;6.074;2022-10-24T13:48:18;98775.69;;;20.35;70.39
24858;BME280;12935;50.782;6.074;2022-10-24T13:50:55;98770.41;;;20.07;71.63
24858;BME280;12935;50.782;6.074;2022-10-24T13:53:29;98780.31;;;19.60;74.24
24858;BME280;12935;50.782;6.074;2022-10-24T13:55:57;98782.44;;;19.66;74.33
24858;BME280;12935;50.782;6.074;2022-10-24T13:58:24;98778.31;;;19.28;75.21
24858;BME280;12935;50.782;6.074;2022-10-24T14:01:02;98778.47;;;19.34;75.07
24858;BME280;12935;50.782;6.074;2022-10-24T14:03:30;98781.34;;;19.39;75.05
24858;BME280;12935;50.782;6.074;2022-10-24T14:05:59;98777.34;;;19.07;77.38
24858;BME280;12935;50.782;6.074;2022-10-24T14:08:37;98767.69;;;19.03;78.52
24858;BME280;12935;50.782;6.074;2022-10-24T14:11:08;98790.00;;;18.99;78.88
24858;BME280;12935;50.782;6.074;2022-10-24T14:13:43;98794.41;;;18.73;80.22
24858;BME280;12935;50.782;6.074;2022-10-24T14:16:09;98796.56;;;18.69;81.24
24858;BME280;12935;50.782;6.074;2022-10-24T14:18:35;98802.69;;;18.82;80.59
24858;BME280;12935;50.782;6.074;2022-10-24T14:21:04;98810.56;;;18.65;82.70
24858;BME280;12935;50.782;6.074;2022-10-24T14:23:38;98822.88;;;18.55;83.64
24858;BME280;12935;50.782;6.074;2022-10-24T14:26:20;98817.94;;;18.68;82.87
24858;BME280;12935;50.782;6.074;2022-10-24T14:28:48;98827.31;;;18.71;82.35
24858;BME280;12935;50.782;6.074;2022-10-24T14:31:26;98823.78;;;18.70;82.22
24858;BME280;12935;50.782;6.074;2022-10-24T14:33:55;98821.63;;;18.65;83.03
24858;BME280;12935;50.782;6.074;2022-10-24T14:36:24;98820.41;;;18.66;83.31
24858;BME280;12935;50.782;6.074;2022-10-24T14:38:53;98822.09;;;18.73;83.55
24858;BME280;12935;50.782;6.074;2022-10-24T14:41:39;98827.03;;;18.60;83.53
24858;BME280;12935;50.782;6.074;2022-10-24T14:44:05;98833.78;;;18.31;85.47
24858;BME280;12935;50.782;6.074;2022-10-24T14:46:38;98819.81;;;17.98;88.32
24858;BME280;12935;50.782;6.074;2022-10-24T14:51:51;98818.88;;;17.83;91.44
24858;BME280;12935;50.782;6.074;2022-10-24T14:54:23;98825.03;;;17.87;92.73
24858;BME280;12935;50.782;6.074;2022-10-24T14:56:50;98822.91;;;17.91;92.97
24858;BME280;12935;50.782;6.074;2022-10-24T15:01:58;98816.44;;;18.03;92.47
24858;BME280;12935;50.782;6.074;2022-10-24T15:04:28;98814.59;;;18.00;92.35
24858;BME280;12935;50.782;6.074;2022-10-24T15:06:54;98814.91;;;17.93;92.96
24858;BME280;12935;50.782;6.074;2022-10-24T15:09:20;98819.06;;;17.88;93.65
24858;BME280;12935;50.782;6.074;2022-10-24T15:11:58;98829.81;;;17.86;93.86
24858;BME280;12935;50.782;6.074;2022-10-24T15:14:38;98837.19;;;17.90;93.91
24858;BME280;12935;50.782;6.074;2022-10-24T15:19:42;98845.25;;;17.66;97.25